Time,TemperatureF,DewpointF,PressureIn,WindDirection,WindDirectionDegrees,WindSpeedMPH,WindSpeedGustMPH,Humidity,HourlyPrecipIn,Conditions,Clouds,dailyrainin,SoftwareType,DateUTC
2013-02-09 00:00:00,68.2,58.8,29.98,West,270,6.3,-999.0,72,-99.99,,,0.00,Acu-Link.com,2013-02-09 05:00:00,
2013-02-09 00:15:00,68.0,59.0,29.97,WNW,292,7.3,-999.0,73,-99.99,,,0.00,Acu-Link.com,2013-02-09 05:15:00,
2013-02-09 00:31:00,67.6,59.0,29.97,WNW,292,4.7,-999.0,74,-99.99,,,0.00,Acu-Link.com,2013-02-09 05:31:00,
2013-02-09 00:46:00,67.3,58.7,29.97,NNW,337,4.2,-999.0,74,-99.99,,,0.00,Acu-Link.com,2013-02-09 05:46:00,
2013-02-09 01:01:00,66.9,58.3,29.97,WNW,292,6.3,-999.0,74,-99.99,,,0.00,Acu-Link.com,2013-02-09 06:01:00,
2013-02-09 01:17:00,66.6,58.0,29.97,WNW,292,4.2,-999.0,74,-99.99,,,0.00,Acu-Link.com,2013-02-09 06:17:00,
2013-02-09 01:32:00,65.8,57.6,29.97,WNW,292,4.2,-999.0,75,-99.99,,,0.00,Acu-Link.com,2013-02-09 06:32:00,
2013-02-09 01:47:00,65.3,57.9,29.97,NW,315,4.7,-999.0,77,-99.99,,,0.00,Acu-Link.com,2013-02-09 06:47:00,
2013-02-09 02:03:00,65.1,58.8,29.97,NNW,337,4.2,-999.0,80,-99.99,,,0.00,Acu-Link.com,2013-02-09 07:03:00,
2013-02-09 02:18:00,64.9,58.9,29.96,WNW,292,4.2,-999.0,81,-99.99,,,0.00,Acu-Link.com,2013-02-09 07:18:00,
2013-02-09 02:33:00,64.6,59.0,29.97,NW,315,5.3,-999.0,82,-99.99,,,0.00,Acu-Link.com,2013-02-09 07:33:00,
2013-02-09 02:49:00,64.2,58.9,29.97,WNW,292,4.7,-999.0,83,-99.99,,,0.00,Acu-Link.com,2013-02-09 07:49:00,
2013-02-09 03:04:00,63.9,59.3,29.97,NNW,337,4.2,-999.0,85,-99.99,,,0.00,Acu-Link.com,2013-02-09 08:04:00,
2013-02-09 03:19:00,63.9,59.6,29.97,NW,315,4.7,-999.0,86,-99.99,,,0.00,Acu-Link.com,2013-02-09 08:19:00,
2013-02-09 03:35:00,64.2,60.2,29.97,NNW,337,5.8,-999.0,87,-99.99,,,0.00,Acu-Link.com,2013-02-09 08:35:00,
2013-02-09 03:50:00,64.2,61.2,29.97,NNW,337,4.2,-999.0,90,-99.99,,,0.00,Acu-Link.com,2013-02-09 08:50:00,
2013-02-09 04:05:00,64.6,61.9,29.97,North,0,4.7,-999.0,91,-99.99,,,0.00,Acu-Link.com,2013-02-09 09:05:00,
2013-02-09 04:20:00,64.6,62.2,29.98,NNW,337,2.7,-999.0,92,-99.99,,,0.00,Acu-Link.com,2013-02-09 09:20:00,
2013-02-09 04:36:00,64.9,62.5,29.97,North,0,2.7,-999.0,92,-99.99,,,0.00,Acu-Link.com,2013-02-09 09:36:00,
2013-02-09 04:51:00,65.3,62.9,29.98,NNW,337,4.7,-999.0,92,-99.99,,,0.00,Acu-Link.com,2013-02-09 09:51:00,
2013-02-09 05:06:00,65.1,62.7,29.98,NW,315,3.7,-999.0,92,-99.99,,,0.00,Acu-Link.com,2013-02-09 10:06:00,
2013-02-09 05:21:00,65.1,63.0,29.99,NE,45,3.7,-999.0,93,-99.99,,,0.00,Acu-Link.com,2013-02-09 10:21:00,
2013-02-09 05:37:00,65.5,63.4,30.00,NNE,22,3.2,-999.0,93,-99.99,,,0.00,Acu-Link.com,2013-02-09 10:37:00,
2013-02-09 05:52:00,65.7,63.6,30.00,NW,315,2.7,-999.0,93,-99.99,,,0.00,Acu-Link.com,2013-02-09 10:52:00,
2013-02-09 06:07:00,65.5,63.4,30.01,NNW,337,3.7,-999.0,93,-99.99,,,0.00,Acu-Link.com,2013-02-09 11:07:00,
2013-02-09 06:23:00,65.5,63.4,30.01,NNE,22,3.2,-999.0,93,-99.99,,,0.00,Acu-Link.com,2013-02-09 11:23:00,
2013-02-09 06:38:00,65.1,63.0,30.01,NNE,22,3.7,-999.0,93,-99.99,,,0.00,Acu-Link.com,2013-02-09 11:38:00,
2013-02-09 06:53:00,65.1,63.0,30.02,ENE,67,4.2,-999.0,93,-99.99,,,0.00,Acu-Link.com,2013-02-09 11:53:00,
2013-02-09 07:09:00,64.9,62.8,30.02,ENE,67,3.7,-999.0,93,-99.99,,,0.00,Acu-Link.com,2013-02-09 12:09:00,
2013-02-09 07:24:00,64.9,62.8,30.02,East,90,3.7,-999.0,93,-99.99,,,0.00,Acu-Link.com,2013-02-09 12:24:00,
2013-02-09 07:39:00,64.9,62.8,30.03,NE,45,2.7,-999.0,93,-99.99,,,0.00,Acu-Link.com,2013-02-09 12:39:00,
2013-02-09 07:55:00,65.1,63.0,30.04,ENE,67,3.2,-999.0,93,-99.99,,,0.00,Acu-Link.com,2013-02-09 12:55:00,
2013-02-09 08:10:00,66.4,64.0,30.04,ENE,67,3.7,-999.0,92,-99.99,,,0.00,Acu-Link.com,2013-02-09 13:10:00,
2013-02-09 08:25:00,68.2,64.2,30.04,East,90,4.2,-999.0,87,-99.99,,,0.00,Acu-Link.com,2013-02-09 13:25:00,
2013-02-09 08:41:00,69.4,64.3,30.05,ENE,67,4.2,-999.0,84,-99.99,,,0.00,Acu-Link.com,2013-02-09 13:41:00,
2013-02-09 08:56:00,70.7,65.3,30.04,ENE,67,3.7,-999.0,83,-99.99,,,0.00,Acu-Link.com,2013-02-09 13:56:00,
2013-02-09 09:11:00,72.5,65.6,30.05,East,90,5.3,-999.0,79,-99.99,,,0.00,Acu-Link.com,2013-02-09 14:11:00,
2013-02-09 09:26:00,73.8,66.1,30.06,East,90,7.8,-999.0,77,-99.99,,,0.00,Acu-Link.com,2013-02-09 14:26:00,
2013-02-09 09:41:00,74.5,66.4,30.06,East,90,7.8,-999.0,76,-99.99,,,0.00,Acu-Link.com,2013-02-09 14:41:00,
2013-02-09 09:57:00,74.8,66.3,30.06,East,90,5.8,-999.0,75,-99.99,,,0.00,Acu-Link.com,2013-02-09 14:57:00,
2013-02-09 10:12:00,75.7,66.0,30.06,East,90,8.9,-999.0,72,-99.99,,,0.00,Acu-Link.com,2013-02-09 15:12:00,
2013-02-09 10:27:00,77.0,66.0,30.07,ESE,112,6.3,-999.0,69,-99.99,,,0.00,Acu-Link.com,2013-02-09 15:27:00,
2013-02-09 10:43:00,76.8,67.1,30.07,ESE,112,8.9,-999.0,72,-99.99,,,0.00,Acu-Link.com,2013-02-09 15:43:00,
2013-02-09 10:58:00,77.0,66.9,30.07,East,90,7.8,-999.0,71,-99.99,,,0.00,Acu-Link.com,2013-02-09 15:58:00,
2013-02-09 11:13:00,76.6,66.5,30.07,ENE,67,5.8,-999.0,71,-99.99,,,0.00,Acu-Link.com,2013-02-09 16:13:00,
2013-02-09 11:28:00,75.4,66.1,30.06,East,90,6.8,-999.0,73,-99.99,,,0.00,Acu-Link.com,2013-02-09 16:28:00,
2013-02-09 11:44:00,75.7,66.0,30.06,East,90,5.8,-999.0,72,-99.99,,,0.00,Acu-Link.com,2013-02-09 16:44:00,
2013-02-09 11:59:00,75.9,65.8,30.06,East,90,7.3,-999.0,71,-99.99,,,0.00,Acu-Link.com,2013-02-09 16:59:00,
2013-02-09 12:14:00,77.0,66.4,30.05,East,90,6.8,-999.0,70,-99.99,,,0.00,Acu-Link.com,2013-02-09 17:14:00,
2013-02-09 12:30:00,77.4,66.0,30.05,East,90,6.3,-999.0,68,-99.99,,,0.00,Acu-Link.com,2013-02-09 17:30:00,
2013-02-09 12:45:00,76.6,66.1,30.05,East,90,9.4,-999.0,70,-99.99,,,0.00,Acu-Link.com,2013-02-09 17:45:00,
2013-02-09 13:00:00,76.6,65.7,30.04,East,90,5.8,-999.0,69,-99.99,,,0.00,Acu-Link.com,2013-02-09 18:00:00,
2013-02-09 13:16:00,77.0,66.0,30.04,East,90,6.8,-999.0,69,-99.99,,,0.00,Acu-Link.com,2013-02-09 18:16:00,
2013-02-09 13:31:00,77.2,66.6,30.03,East,90,8.3,-999.0,70,-99.99,,,0.00,Acu-Link.com,2013-02-09 18:31:00,
2013-02-09 13:46:00,77.2,64.9,30.03,SSW,202,3.2,-999.0,66,-99.99,,,0.00,Acu-Link.com,2013-02-09 18:46:00,
2013-02-09 14:01:00,76.5,65.6,30.02,East,90,6.3,-999.0,69,-99.99,,,0.00,Acu-Link.com,2013-02-09 19:01:00,
2013-02-09 14:17:00,78.3,66.0,30.02,East,90,9.4,-999.0,66,-99.99,,,0.00,Acu-Link.com,2013-02-09 19:17:00,
2013-02-09 14:32:00,77.9,66.9,30.03,East,90,7.3,-999.0,69,-99.99,,,0.00,Acu-Link.com,2013-02-09 19:32:00,
2013-02-09 14:47:00,77.2,65.8,30.04,SE,135,4.7,-999.0,68,-99.99,,,0.00,Acu-Link.com,2013-02-09 19:47:00,
2013-02-09 15:03:00,75.6,65.9,30.03,ENE,67,10.4,-999.0,72,-99.99,,,0.00,Acu-Link.com,2013-02-09 20:03:00,
2013-02-09 15:18:00,75.2,64.7,30.03,ESE,112,6.8,-999.0,70,-99.99,,,0.00,Acu-Link.com,2013-02-09 20:18:00,
2013-02-09 15:33:00,74.8,64.8,30.03,East,90,9.9,-999.0,71,-99.99,,,0.00,Acu-Link.com,2013-02-09 20:33:00,
2013-02-09 15:48:00,74.3,65.1,30.03,ESE,112,10.4,-999.0,73,-99.99,,,0.00,Acu-Link.com,2013-02-09 20:48:00,
2013-02-09 16:04:00,75.6,65.1,30.03,East,90,8.9,-999.0,70,-99.99,,,0.00,Acu-Link.com,2013-02-09 21:04:00,
2013-02-09 16:19:00,75.6,65.5,30.03,East,90,8.9,-999.0,71,-99.99,,,0.00,Acu-Link.com,2013-02-09 21:19:00,
2013-02-09 16:34:00,75.6,65.1,30.03,ESE,112,6.3,-999.0,70,-99.99,,,0.00,Acu-Link.com,2013-02-09 21:34:00,
2013-02-09 16:49:00,75.7,65.2,30.04,ESE,112,9.9,-999.0,70,-99.99,,,0.00,Acu-Link.com,2013-02-09 21:49:00,
2013-02-09 17:05:00,74.5,65.3,30.05,East,90,7.3,-999.0,73,-99.99,,,0.00,Acu-Link.com,2013-02-09 22:05:00,
2013-02-09 17:20:00,73.6,65.2,30.06,East,90,13.0,-999.0,75,-99.99,,,0.00,Acu-Link.com,2013-02-09 22:20:00,
2013-02-09 17:35:00,72.9,64.5,30.06,ESE,112,3.7,-999.0,75,-99.99,,,0.00,Acu-Link.com,2013-02-09 22:35:00,
2013-02-09 17:51:00,72.7,63.9,30.06,ESE,112,9.4,-999.0,74,-99.99,,,0.00,Acu-Link.com,2013-02-09 22:51:00,
2013-02-09 18:06:00,72.5,64.1,30.06,ESE,112,6.8,-999.0,75,-99.99,,,0.00,Acu-Link.com,2013-02-09 23:06:00,
2013-02-09 18:21:00,72.5,64.1,30.05,East,90,8.3,-999.0,75,-99.99,,,0.00,Acu-Link.com,2013-02-09 23:21:00,
2013-02-09 18:36:00,72.3,63.9,30.05,East,90,7.8,-999.0,75,-99.99,,,0.00,Acu-Link.com,2013-02-09 23:36:00,
2013-02-09 18:51:00,72.1,63.7,30.06,East,90,10.9,-999.0,75,-99.99,,,0.00,Acu-Link.com,2013-02-09 23:51:00,
2013-02-09 19:07:00,72.1,63.7,30.07,East,90,8.9,-999.0,75,-99.99,,,0.00,Acu-Link.com,2013-02-10 00:07:00,
2013-02-09 19:22:00,72.0,63.6,30.06,East,90,7.8,-999.0,75,-99.99,,,0.00,Acu-Link.com,2013-02-10 00:22:00,
2013-02-09 19:37:00,72.0,64.0,30.08,East,90,8.3,-999.0,76,-99.99,,,0.00,Acu-Link.com,2013-02-10 00:37:00,
2013-02-09 19:52:00,71.8,63.1,30.09,East,90,9.9,-999.0,74,-99.99,,,0.00,Acu-Link.com,2013-02-10 00:52:00,
2013-02-09 20:08:00,71.6,63.6,30.08,ESE,112,6.3,-999.0,76,-99.99,,,0.00,Acu-Link.com,2013-02-10 01:08:00,
2013-02-09 20:23:00,71.6,63.6,30.09,East,90,7.3,-999.0,76,-99.99,,,0.00,Acu-Link.com,2013-02-10 01:23:00,
2013-02-09 20:38:00,71.4,63.4,30.09,East,90,7.8,-999.0,76,-99.99,,,0.00,Acu-Link.com,2013-02-10 01:38:00,
2013-02-09 20:53:00,71.6,63.6,30.10,East,90,6.8,-999.0,76,-99.99,,,0.00,Acu-Link.com,2013-02-10 01:53:00,
2013-02-09 21:09:00,71.6,63.6,30.10,East,90,7.8,-999.0,76,-99.99,,,0.00,Acu-Link.com,2013-02-10 02:09:00,
2013-02-09 21:24:00,71.4,63.1,30.10,ESE,112,8.3,-999.0,75,-99.99,,,0.00,Acu-Link.com,2013-02-10 02:24:00,
2013-02-09 21:39:00,71.4,63.1,30.09,ESE,112,10.4,-999.0,75,-99.99,,,0.00,Acu-Link.com,2013-02-10 02:39:00,
2013-02-09 21:54:00,71.6,63.2,30.11,East,90,9.9,-999.0,75,-99.99,,,0.00,Acu-Link.com,2013-02-10 02:54:00,
2013-02-09 22:10:00,71.4,62.7,30.11,East,90,8.3,-999.0,74,-99.99,,,0.00,Acu-Link.com,2013-02-10 03:10:00,
2013-02-09 22:25:00,71.2,62.9,30.10,East,90,8.3,-999.0,75,-99.99,,,0.00,Acu-Link.com,2013-02-10 03:25:00,
2013-02-09 22:40:00,71.2,63.2,30.11,East,90,8.3,-999.0,76,-99.99,,,0.00,Acu-Link.com,2013-02-10 03:40:00,
2013-02-09 22:55:00,71.2,62.9,30.10,ESE,112,8.3,-999.0,75,-99.99,,,0.00,Acu-Link.com,2013-02-10 03:55:00,
2013-02-09 23:11:00,71.1,63.1,30.10,East,90,8.9,-999.0,76,-99.99,,,0.00,Acu-Link.com,2013-02-10 04:11:00,
2013-02-09 23:26:00,71.1,62.8,30.10,East,90,10.4,-999.0,75,-99.99,,,0.00,Acu-Link.com,2013-02-10 04:26:00,
2013-02-09 23:41:00,70.9,62.9,30.10,East,90,9.9,-999.0,76,-99.99,,,0.00,Acu-Link.com,2013-02-10 04:41:00,
2013-02-09 23:56:00,70.9,62.6,30.09,East,90,8.9,-999.0,75,-99.99,,,0.00,Acu-Link.com,2013-02-10 04:56:00,